createdAt,value
2023-02-16T00:46:01.459Z,10.15
2023-02-16T00:48:29.884Z,10.52
2023-02-16T00:50:58.271Z,12.85
2023-02-16T00:53:26.932Z,9.77
2023-02-16T00:55:56.435Z,9.10
2023-02-16T00:58:27.968Z,9.98
2023-02-16T01:46:26.343Z,10.32
2023-02-16T01:48:55.255Z,8.30
2023-02-16T01:51:28.592Z,7.32
2023-02-16T01:54:05.738Z,8.90
2023-02-16T01:56:41.096Z,8.77
2023-02-16T01:59:19.592Z,8.43
2023-02-16T02:46:28.500Z,9.10
2023-02-16T02:48:57.218Z,7.43
2023-02-16T02:51:33.757Z,6.00
2023-02-16T02:54:26.262Z,6.05
2023-02-16T02:57:23.291Z,6.47
2023-02-16T03:45:21.498Z,6.55
2023-02-16T03:47:50.122Z,7.57
2023-02-16T03:50:19.017Z,6.00
2023-02-16T03:52:47.477Z,5.78
2023-02-16T03:55:16.326Z,5.20
2023-02-16T03:57:44.795Z,7.05
2023-02-16T04:47:05.852Z,6.47
2023-02-16T04:49:34.630Z,5.25
2023-02-16T04:52:03.952Z,9.30
2023-02-16T04:54:32.681Z,5.45
2023-02-16T04:57:01.924Z,5.60
2023-02-16T04:59:30.343Z,6.57
2023-02-16T05:46:00.518Z,8.27
2023-02-16T05:48:29.048Z,5.68
2023-02-16T05:50:57.499Z,5.47
2023-02-16T05:53:26.078Z,5.03
2023-02-16T05:55:54.983Z,4.40
2023-02-16T05:58:23.595Z,4.57
2023-02-16T06:00:52.004Z,4.57
2023-02-16T06:03:21.845Z,8.45
2023-02-16T06:05:54.955Z,5.10
2023-02-16T06:08:23.831Z,5.75
2023-02-16T06:10:53.771Z,6.35
2023-02-16T06:13:23.254Z,5.97
2023-02-16T06:15:55.193Z,5.78
2023-02-16T06:18:26.387Z,5.40
2023-02-16T06:20:57.592Z,4.95
2023-02-16T06:23:26.356Z,4.47
2023-02-16T06:25:54.957Z,6.03
2023-02-16T06:28:23.849Z,5.07
2023-02-16T06:30:52.282Z,5.20
2023-02-16T06:33:20.753Z,4.93
2023-02-16T06:35:50.753Z,5.80
2023-02-16T06:38:19.170Z,7.55
2023-02-16T06:40:47.672Z,6.22
2023-02-16T06:43:16.046Z,5.97
2023-02-16T06:45:44.512Z,10.65
2023-02-16T06:48:12.842Z,6.93
2023-02-16T06:50:41.358Z,9.85
2023-02-16T06:53:11.466Z,7.10
2023-02-16T06:55:40.016Z,8.38
2023-02-16T06:58:09.361Z,6.10
2023-02-16T07:00:37.913Z,6.68
2023-02-16T07:03:06.545Z,6.78
2023-02-16T07:05:35.059Z,5.32
2023-02-16T07:08:03.438Z,5.93
2023-02-16T07:10:47.733Z,5.40
2023-02-16T07:13:17.912Z,6.65
2023-02-16T07:15:46.713Z,8.80
2023-02-16T07:18:15.075Z,6.35
2023-02-16T07:20:43.460Z,6.15
2023-02-16T07:23:11.886Z,12.30
2023-02-16T07:25:41.965Z,4.95
2023-02-16T07:28:10.502Z,7.00
2023-02-16T07:30:38.976Z,9.20
2023-02-16T07:33:07.824Z,7.60
2023-02-16T07:35:37.552Z,7.35
2023-02-16T07:38:07.466Z,6.45
2023-02-16T07:40:36.468Z,6.35
2023-02-16T07:43:07.755Z,9.55
2023-02-16T07:45:36.527Z,6.63
2023-02-16T07:48:05.892Z,5.90
2023-02-16T07:50:34.658Z,6.20
2023-02-16T07:53:03.580Z,7.20
2023-02-16T07:55:32.058Z,4.20
2023-02-16T07:58:02.090Z,4.82
2023-02-16T08:00:32.177Z,5.10
2023-02-16T08:03:00.939Z,7.15
2023-02-16T08:05:29.959Z,4.80
2023-02-16T08:07:58.404Z,3.50
2023-02-16T08:10:27.136Z,7.25
2023-02-16T08:12:55.733Z,7.10
2023-02-16T08:15:24.875Z,6.38
2023-02-16T08:17:54.899Z,5.72
2023-02-16T08:20:28.382Z,5.40
2023-02-16T08:23:03.746Z,7.25
2023-02-16T08:25:33.988Z,4.07
2023-02-16T08:28:02.348Z,5.03
2023-02-16T08:30:31.156Z,5.63
2023-02-16T08:33:01.773Z,5.30
2023-02-16T08:35:32.434Z,5.25
2023-02-16T08:38:02.358Z,5.20
2023-02-16T08:40:31.470Z,6.10
2023-02-16T08:42:59.871Z,3.80
2023-02-16T08:45:29.650Z,5.78
2023-02-16T08:48:01.208Z,5.15
2023-02-16T08:50:30.940Z,5.63
2023-02-16T08:52:59.323Z,4.68
2023-02-16T08:55:27.871Z,7.20
2023-02-16T08:57:56.491Z,5.18
2023-02-16T09:00:38.569Z,4.47
2023-02-16T09:03:07.248Z,5.70
2023-02-16T09:05:37.288Z,7.35
2023-02-16T09:08:06.210Z,4.65
2023-02-16T09:10:34.535Z,6.00
2023-02-16T09:13:03.414Z,5.45
2023-02-16T09:15:33.266Z,8.32
2023-02-16T09:18:01.651Z,5.53
2023-02-16T09:20:30.079Z,6.60
2023-02-16T09:23:00.086Z,7.38
2023-02-16T09:25:28.719Z,4.20
2023-02-16T09:27:57.867Z,4.55
2023-02-16T09:30:26.738Z,6.55
2023-02-16T09:32:55.693Z,5.82
2023-02-16T09:35:24.295Z,7.57
2023-02-16T09:37:53.906Z,5.50
2023-02-16T09:40:24.384Z,7.00
2023-02-16T09:43:06.876Z,13.10
2023-02-16T09:45:42.973Z,6.15
2023-02-16T09:48:25.098Z,6.60
2023-02-16T09:50:55.420Z,5.95
2023-02-16T09:53:37.153Z,7.72
2023-02-16T09:56:20.098Z,6.53
2023-02-16T09:58:52.955Z,5.03
2023-02-16T10:01:31.788Z,4.18
2023-02-16T10:04:24.127Z,5.78
2023-02-16T10:07:06.113Z,5.50
2023-02-16T10:09:35.695Z,5.35
2023-02-16T10:12:09.359Z,4.03
2023-02-16T10:14:45.604Z,5.80
2023-02-16T10:17:24.316Z,5.82
2023-02-16T10:19:57.442Z,4.88
2023-02-16T10:22:33.460Z,4.30
2023-02-16T10:25:06.093Z,7.97
2023-02-16T10:27:42.221Z,7.35
2023-02-16T10:30:18.213Z,8.82
2023-02-16T10:32:57.999Z,8.80
2023-02-16T10:35:38.272Z,4.72
2023-02-16T10:38:15.532Z,6.10
2023-02-16T10:40:55.302Z,7.25
2023-02-16T10:43:43.234Z,4.63
2023-02-16T10:46:16.339Z,6.88
2023-02-16T10:48:46.474Z,6.93
2023-02-16T10:51:18.962Z,20.20
2023-02-16T10:53:51.245Z,7.93
2023-02-16T10:56:39.614Z,7.30
2023-02-16T10:59:17.534Z,16.27
2023-02-16T11:01:49.507Z,85.25
2023-02-16T11:04:38.179Z,458.27
2023-02-16T11:07:10.149Z,718.05
2023-02-16T11:09:40.899Z,488.38
2023-02-16T11:12:29.669Z,371.42
2023-02-16T11:15:04.398Z,231.50
2023-02-16T11:17:48.282Z,176.88
2023-02-16T11:20:29.808Z,170.35
2023-02-16T11:23:23.111Z,173.57
2023-02-16T11:26:04.042Z,164.75
2023-02-16T11:28:37.089Z,165.23
2023-02-16T11:31:17.022Z,159.00
2023-02-16T11:33:58.534Z,152.18
2023-02-16T11:36:34.070Z,124.63
2023-02-16T11:39:07.771Z,88.03
2023-02-16T11:41:37.408Z,80.28
2023-02-16T11:44:06.993Z,77.47
2023-02-16T11:46:42.451Z,72.63
2023-02-16T11:49:30.030Z,66.80
2023-02-16T11:51:59.146Z,64.63
2023-02-16T11:54:27.908Z,58.15
2023-02-16T11:57:05.779Z,54.58
2023-02-16T11:59:38.681Z,51.58
2023-02-16T12:02:58.088Z,53.03
2023-02-16T12:05:35.935Z,50.70
2023-02-16T12:08:25.843Z,43.80
2023-02-16T12:11:25.411Z,47.67
2023-02-16T12:14:13.591Z,44.80
2023-02-16T12:16:51.111Z,39.30
2023-02-16T12:19:34.801Z,36.22
2023-02-16T12:22:40.366Z,38.03
2023-02-16T12:25:27.644Z,33.03
2023-02-16T12:28:07.436Z,35.60
2023-02-16T12:30:52.745Z,31.85
2023-02-16T12:33:43.157Z,30.17
2023-02-16T12:36:36.151Z,29.92
2023-02-16T12:39:17.733Z,32.38
2023-02-16T12:42:21.212Z,28.15
2023-02-16T12:44:53.733Z,27.80
2023-02-16T12:47:29.673Z,30.73
2023-02-16T12:50:03.426Z,27.75
2023-02-16T12:52:41.280Z,25.40
2023-02-16T12:55:20.794Z,25.35
2023-02-16T12:57:57.959Z,27.40
2023-02-16T13:00:36.651Z,26.40
2023-02-16T13:03:21.888Z,24.63
2023-02-16T13:05:58.571Z,25.13
2023-02-16T13:08:40.221Z,19.63
2023-02-16T13:11:17.427Z,19.40
2023-02-16T13:13:50.280Z,22.55
2023-02-16T13:16:30.071Z,20.38
2023-02-16T13:19:00.028Z,18.95
2023-02-16T13:21:51.557Z,19.63
2023-02-16T13:24:33.957Z,22.27
2023-02-16T13:27:33.942Z,16.05
2023-02-16T13:30:51.301Z,17.33
2023-02-16T13:33:44.266Z,17.08
2023-02-16T13:36:29.225Z,16.73
2023-02-16T13:39:29.816Z,17.30
2023-02-16T13:42:43.139Z,14.80
2023-02-16T13:45:18.721Z,15.23
2023-02-16T13:47:47.431Z,16.45
2023-02-16T13:50:30.884Z,12.77
2023-02-16T13:53:19.028Z,17.60
2023-02-16T13:55:50.776Z,14.52
2023-02-16T13:58:33.933Z,16.13
2023-02-16T14:01:39.878Z,15.63
2023-02-16T14:04:34.331Z,11.98
2023-02-16T14:07:35.951Z,12.23
2023-02-16T14:10:04.553Z,14.05
2023-02-16T14:12:38.692Z,16.05
2023-02-16T14:15:19.422Z,14.25
2023-02-16T14:17:54.068Z,13.10
2023-02-16T14:20:31.535Z,17.77
2023-02-16T14:23:03.580Z,13.27
2023-02-16T14:25:40.044Z,16.42
2023-02-16T14:29:09.465Z,13.75
2023-02-16T14:31:48.402Z,13.38
2023-02-16T14:34:23.207Z,14.20
2023-02-16T14:37:30.144Z,15.57
2023-02-16T14:40:47.537Z,14.80
2023-02-16T14:43:31.594Z,14.07
2023-02-16T14:46:35.133Z,14.98
2023-02-16T14:49:51.501Z,15.05
2023-02-16T14:52:53.890Z,10.70
2023-02-16T14:56:31.337Z,11.57
2023-02-16T14:59:04.380Z,16.52
2023-02-16T15:01:42.687Z,12.98
2023-02-16T15:04:12.755Z,11.68
2023-02-16T15:06:54.813Z,12.57
2023-02-16T15:09:27.516Z,12.57
2023-02-16T15:12:24.974Z,11.88
2023-02-16T15:15:01.624Z,11.02
2023-02-16T15:17:35.616Z,13.18
2023-02-16T15:20:12.272Z,1999.90
2023-02-16T15:22:49.022Z,1280.63
2023-02-16T15:25:26.332Z,1223.07
2023-02-16T15:28:01.868Z,1152.10
2023-02-16T15:30:32.659Z,1147.55
2023-02-16T15:33:03.978Z,1124.15
2023-02-16T15:35:37.924Z,1098.47
2023-02-16T15:38:20.750Z,1084.88
2023-02-16T15:40:53.672Z,948.58
2023-02-16T15:43:35.730Z,967.58
2023-02-16T15:46:06.807Z,952.53
2023-02-16T15:48:38.244Z,950.40
2023-02-16T15:51:14.361Z,953.15
2023-02-16T15:53:51.686Z,934.75
2023-02-16T15:56:44.386Z,928.33
2023-02-16T15:59:34.355Z,923.22
2023-02-16T16:02:13.960Z,904.67
2023-02-16T16:04:45.489Z,878.80
2023-02-16T16:07:17.554Z,881.45
2023-02-16T16:09:46.859Z,887.03
2023-02-16T16:12:20.081Z,850.03
2023-02-16T16:14:56.052Z,851.35
2023-02-16T16:17:30.612Z,841.92
2023-02-16T16:20:19.041Z,820.53
2023-02-16T16:22:47.634Z,819.45
2023-02-16T16:25:40.149Z,798.95
2023-02-16T16:28:13.178Z,808.97
2023-02-16T16:30:45.227Z,796.85
2023-02-16T16:33:16.117Z,787.00
2023-02-16T16:35:47.215Z,775.30
2023-02-16T16:38:27.152Z,760.92
2023-02-16T16:40:58.574Z,755.03
2023-02-16T16:43:31.187Z,762.42
2023-02-16T16:46:18.950Z,742.35
2023-02-16T16:48:50.295Z,735.63
2023-02-16T16:51:22.615Z,758.25
2023-02-16T16:54:00.381Z,737.55
2023-02-16T16:56:31.178Z,717.25
2023-02-16T16:59:01.210Z,704.28
2023-02-16T17:01:32.187Z,716.95
2023-02-16T17:04:01.604Z,711.88
2023-02-16T17:06:31.254Z,691.70
2023-02-16T17:09:00.219Z,707.95
2023-02-16T17:11:33.790Z,675.95
2023-02-16T17:14:10.417Z,674.67
2023-02-16T17:16:44.466Z,699.85
2023-02-16T17:19:14.627Z,688.28
2023-02-16T17:21:43.694Z,686.85
2023-02-16T17:24:12.480Z,678.70
2023-02-16T17:26:41.378Z,652.35
2023-02-16T17:29:10.347Z,659.58
2023-02-16T17:31:40.283Z,643.28
2023-02-16T17:34:11.371Z,633.78
2023-02-16T17:36:40.655Z,667.33
2023-02-16T17:39:09.299Z,611.60
2023-02-16T17:41:41.430Z,643.33
2023-02-16T17:44:11.417Z,621.95
2023-02-16T17:46:45.001Z,615.45
2023-02-16T17:49:17.628Z,613.05
2023-02-16T17:51:46.720Z,631.72
2023-02-16T17:54:17.002Z,609.10
2023-02-16T17:56:47.121Z,629.85
2023-02-16T17:59:21.403Z,596.85
2023-02-16T18:01:53.394Z,590.25
2023-02-16T18:04:23.910Z,590.00
2023-02-16T18:06:53.097Z,583.25
2023-02-16T18:09:24.734Z,589.08
2023-02-16T18:11:53.839Z,566.80
2023-02-16T18:14:26.597Z,585.85
2023-02-16T18:17:02.238Z,565.85
2023-02-16T18:19:32.007Z,563.22
2023-02-16T18:22:02.025Z,537.60
2023-02-16T18:24:33.492Z,499.25
2023-02-16T18:27:02.035Z,469.90
2023-02-16T18:29:30.929Z,477.48
2023-02-16T18:32:03.315Z,401.00
2023-02-16T18:34:33.341Z,373.02
2023-02-16T18:37:02.036Z,385.85
2023-02-16T18:39:30.901Z,366.08
2023-02-16T18:41:59.341Z,350.48
2023-02-16T18:44:28.354Z,337.15
2023-02-16T18:46:57.357Z,318.60
2023-02-16T18:49:27.477Z,247.32
2023-02-16T18:51:56.040Z,230.77
2023-02-16T18:54:24.420Z,216.43
2023-02-16T18:56:53.263Z,213.45
2023-02-16T18:59:21.764Z,212.93
2023-02-16T19:01:56.293Z,214.68
2023-02-16T19:04:26.732Z,205.63
2023-02-16T19:06:56.007Z,188.20
2023-02-16T19:09:24.442Z,186.18
2023-02-16T19:11:53.222Z,176.40
2023-02-16T19:14:21.980Z,186.95
2023-02-16T19:16:50.311Z,169.93
2023-02-16T19:19:19.153Z,165.07
2023-02-16T19:21:48.908Z,179.02
2023-02-16T19:24:17.479Z,165.85
2023-02-16T19:26:46.146Z,159.80
2023-02-16T19:29:14.814Z,155.57
2023-02-16T19:31:43.404Z,160.05
2023-02-16T19:34:12.439Z,148.25
2023-02-16T19:36:41.416Z,152.55
2023-02-16T19:39:12.585Z,144.68
2023-02-16T19:41:44.072Z,149.93
2023-02-16T19:44:14.047Z,144.70
2023-02-16T19:46:43.234Z,140.95
2023-02-16T19:49:15.125Z,133.75
2023-02-16T19:51:44.383Z,139.52
2023-02-16T19:54:14.233Z,127.65
2023-02-16T19:56:42.803Z,131.85
2023-02-16T19:59:11.456Z,127.65
2023-02-16T20:01:39.956Z,131.18
2023-02-16T20:04:08.721Z,119.82
2023-02-16T20:06:41.037Z,96.35
2023-02-16T20:09:12.175Z,85.65
2023-02-16T20:11:42.382Z,80.07
2023-02-16T20:14:12.063Z,92.55
2023-02-16T20:16:41.722Z,88.60
2023-02-16T20:19:10.757Z,77.70
2023-02-16T20:21:40.843Z,81.53
2023-02-16T20:24:09.285Z,70.85
2023-02-16T20:26:42.528Z,64.85
2023-02-16T20:29:13.855Z,63.35
2023-02-16T20:31:49.432Z,68.50
2023-02-16T20:34:19.573Z,66.32
2023-02-16T20:36:48.530Z,60.53
2023-02-16T20:39:17.334Z,66.47
2023-02-16T20:41:47.273Z,63.10
2023-02-16T20:44:15.739Z,64.50
2023-02-16T20:46:44.630Z,60.58
2023-02-16T20:49:14.623Z,56.22
2023-02-16T20:51:43.405Z,53.78
2023-02-16T20:54:13.651Z,62.00
2023-02-16T20:56:42.359Z,47.38
2023-02-16T20:59:13.819Z,47.05
2023-02-16T21:01:46.512Z,47.45
2023-02-16T21:04:17.410Z,47.00
2023-02-16T21:06:47.343Z,40.95
2023-02-16T21:09:17.456Z,42.50
2023-02-16T21:11:46.114Z,39.15
2023-02-16T21:14:16.515Z,37.03
2023-02-16T21:16:45.122Z,42.75
2023-02-16T21:19:22.472Z,36.03
2023-02-16T21:21:51.990Z,35.65
2023-02-16T21:24:20.926Z,36.72
2023-02-16T21:26:49.763Z,36.13
2023-02-16T21:29:19.722Z,35.70
2023-02-16T21:31:48.162Z,31.10
2023-02-16T21:34:16.791Z,31.67
2023-02-16T21:36:45.506Z,34.95
2023-02-16T21:39:14.960Z,31.88
2023-02-16T21:41:42.699Z,31.08
2023-02-16T21:44:12.834Z,33.60
2023-02-16T21:46:45.271Z,31.92
2023-02-16T21:49:16.448Z,28.13
2023-02-16T21:51:47.044Z,33.13
2023-02-16T21:54:17.983Z,34.55
2023-02-16T21:56:49.080Z,28.88
2023-02-16T21:59:22.733Z,24.45
2023-02-16T22:01:53.313Z,24.48
2023-02-16T22:04:23.621Z,19.38
2023-02-16T22:06:52.554Z,23.85
2023-02-16T22:09:24.294Z,22.13
2023-02-16T22:11:53.298Z,21.73
2023-02-16T22:14:21.897Z,18.25
2023-02-16T22:16:51.966Z,17.90
2023-02-16T22:19:20.897Z,17.90
2023-02-16T22:21:51.196Z,19.35
2023-02-16T22:24:21.550Z,19.38
2023-02-16T22:26:51.087Z,16.80
2023-02-16T22:29:20.262Z,16.25
2023-02-16T22:31:51.163Z,17.10
2023-02-16T22:34:22.332Z,17.98
2023-02-16T22:36:51.256Z,18.60
2023-02-16T22:39:21.149Z,18.05
2023-02-16T22:41:51.077Z,14.98
2023-02-16T22:44:19.610Z,15.30
2023-02-16T22:46:48.541Z,15.23
2023-02-16T22:49:18.676Z,17.10
2023-02-16T22:51:47.121Z,15.85
2023-02-16T22:54:16.306Z,16.67
2023-02-16T22:56:45.001Z,15.88
2023-02-16T22:59:14.475Z,15.52
2023-02-16T23:01:43.560Z,17.10
2023-02-16T23:04:15.413Z,14.63
2023-02-16T23:06:46.487Z,15.82
2023-02-16T23:09:19.988Z,14.55
2023-02-16T23:11:49.966Z,15.43
2023-02-16T23:14:19.265Z,15.68
2023-02-16T23:16:49.994Z,15.02
2023-02-16T23:19:22.333Z,14.43
2023-02-16T23:21:52.789Z,14.07
2023-02-16T23:24:23.744Z,13.15
2023-02-16T23:26:53.259Z,16.42
2023-02-16T23:29:21.893Z,14.63
2023-02-16T23:31:50.573Z,14.73
2023-02-16T23:34:20.867Z,13.48
2023-02-16T23:36:51.378Z,14.05
2023-02-16T23:39:20.385Z,13.35
2023-02-16T23:41:49.018Z,13.65
2023-02-16T23:44:17.566Z,12.32
2023-02-16T23:46:45.978Z,14.10
2023-02-16T23:49:14.849Z,12.05
2023-02-16T23:51:43.203Z,15.23
2023-02-16T23:54:12.999Z,16.35
2023-02-16T23:56:42.343Z,14.32
2023-02-16T23:59:10.966Z,16.48
